FABL

Bram Fischer International Airport

Bloemfontain, South Africa
METAR FABL 170700Z 01005KT 340V050 CAVOK 23/15 Q1022 NOSIG
Observed Flight Rules
Dec-17 @ 07:00 UTC (an hour ago) Visual Flight Rules
Wind Visibility Clouds
10° at 5 knots 10,000+ meters
  • Clear skies
Temperatures Readings
Current 23°C / 73°F
Dewpoint 15°C / 59°F
Humidity 61%
Altimeter 30.18" Hg
Pressure 1022 hPa
Elevation 1348
METAR FABL 170700Z 01005KT 340V050 CAVOK 23/15 Q1022 NOSIG
Observed Flight Rules
Dec-17 @ 07:00 UTC
(an hour ago)
VFR
Wind Visibility
10° at 5 knots 10,000+ meters
Clouds
  • Clear skies
Temperature Dewpoint
23°C / 73°F 15°C / 59°F
Humidity Altimeter Pressure
61% 30.18" Hg 1022 hPa